This is the latest recevied weather packets stored in our database for station/object AD6NH. If no packets are shown the sender has not sent any weather packets the latest 10 day(s).
| Time | Temp. | Humidity | Pressure | Rain* | Wind** | Luminosity | Snow |
|---|---|---|---|---|---|---|---|
| 1778015222 | 21.11° C | 42% | 1015.5 hPa | 0 mm | - | - | - |
| 1778014623 | 22.22° C | 42% | 1015.5 hPa | 0 mm | - | - | - |
| 1778014023 | 21.67° C | 44% | 1015.5 hPa | 0 mm | - | - | - |
| 1778013422 | 21.67° C | 45% | 1015.4 hPa | 0 mm | - | - | - |
| 1778012823 | 20.56° C | 49% | 1015.5 hPa | 0 mm | - | - | - |
| 1778012223 | 20° C | 48% | 1015.6 hPa | 0 mm | - | - | - |
| 1778011622 | 21.11° C | 46% | 1015.8 hPa | 0 mm | - | - | - |
| 1778011023 | 21.11° C | 46% | 1015.8 hPa | 0 mm | - | - | - |
| 1778010423 | 20.56° C | 47% | 1015.7 hPa | 0 mm | - | - | - |
| 1778009823 | 19.44° C | 50% | 1016 hPa | 0 mm | - | - | - |
| 1778009223 | 18.89° C | 52% | 1016 hPa | 0 mm | - | - | - |
| 1778008623 | 18.89° C | 51% | 1016 hPa | 0 mm | - | - | - |
| 1778008023 | 18.89° C | 57% | 1016 hPa | 0 mm | - | - | - |
| 1778007423 | 18.89° C | 56% | 1016.1 hPa | 0 mm | - | - | - |
| 1778006823 | 18.89° C | 55% | 1016 hPa | 0 mm | - | - | - |
| 1778006223 | 18.89° C | 55% | 1016 hPa | 0 mm | - | - | - |
| 1778005623 | 18.89° C | 53% | 1015.9 hPa | 0 mm | - | - | - |
| 1778005023 | 18.89° C | 54% | 1015.9 hPa | 0 mm | - | - | - |
| 1778004423 | 20.56° C | 52% | 1015.7 hPa | 0 mm | - | - | - |
| 1778003823 | 18.89° C | 57% | 1015.6 hPa | 0 mm | - | - | - |
| 1778003222 | 18.89° C | 57% | 1015.6 hPa | 0 mm | - | - | - |
| 1778002623 | 18.33° C | 59% | 1015.5 hPa | 0 mm | - | - | - |
| 1778002023 | 18.89° C | 56% | 1015.5 hPa | 0 mm | - | - | - |
| 1778001422 | 18.89° C | 56% | 1015.4 hPa | 0 mm | - | - | - |
| 1778000823 | 19.44° C | 57% | 1015.3 hPa | 0 mm | - | - | - |
* Rain latest hour (hover to see other rain measurements)
** Current wind speed in m/s (hover to see current wind gust speed)